sensor_id;sensor_type;location;lat;lon;timestamp;P1;durP1;ratioP1;P2;durP2;ratioP2
54841;SDS011;40741;45.002;7.536;2022-11-15T00:01:57;25.05;;;16.75;;
54841;SDS011;40741;45.002;7.536;2022-11-15T00:04:23;28.80;;;18.75;;
54841;SDS011;40741;45.002;7.536;2022-11-15T00:06:49;42.25;;;24.80;;
54841;SDS011;40741;45.002;7.536;2022-11-15T00:09:15;52.08;;;29.73;;
54841;SDS011;40741;45.002;7.536;2022-11-15T00:11:41;37.50;;;22.08;;
54841;SDS011;40741;45.002;7.536;2022-11-15T00:14:07;37.22;;;20.98;;
54841;SDS011;40741;45.002;7.536;2022-11-15T00:16:34;34.10;;;20.80;;
54841;SDS011;40741;45.002;7.536;2022-11-15T00:19:00;37.25;;;22.50;;
54841;SDS011;40741;45.002;7.536;2022-11-15T00:21:26;33.58;;;21.63;;
54841;SDS011;40741;45.002;7.536;2022-11-15T00:23:52;40.95;;;23.60;;
54841;SDS011;40741;45.002;7.536;2022-11-15T00:26:18;38.70;;;22.40;;
54841;SDS011;40741;45.002;7.536;2022-11-15T00:28:44;28.98;;;18.05;;
54841;SDS011;40741;45.002;7.536;2022-11-15T00:31:13;21.50;;;14.30;;
54841;SDS011;40741;45.002;7.536;2022-11-15T00:33:39;19.23;;;13.38;;
54841;SDS011;40741;45.002;7.536;2022-11-15T00:36:08;19.30;;;13.70;;
54841;SDS011;40741;45.002;7.536;2022-11-15T00:38:36;19.15;;;13.15;;
54841;SDS011;40741;45.002;7.536;2022-11-15T00:41:03;21.55;;;14.15;;
54841;SDS011;40741;45.002;7.536;2022-11-15T00:43:29;21.10;;;14.52;;
54841;SDS011;40741;45.002;7.536;2022-11-15T00:45:55;18.80;;;12.43;;
54841;SDS011;40741;45.002;7.536;2022-11-15T00:48:21;20.00;;;14.52;;
54841;SDS011;40741;45.002;7.536;2022-11-15T00:50:48;20.33;;;13.63;;
54841;SDS011;40741;45.002;7.536;2022-11-15T00:53:14;20.92;;;14.30;;
54841;SDS011;40741;45.002;7.536;2022-11-15T00:55:41;23.45;;;14.95;;
54841;SDS011;40741;45.002;7.536;2022-11-15T00:58:07;25.10;;;15.18;;
54841;SDS011;40741;45.002;7.536;2022-11-15T01:00:33;27.45;;;16.83;;
54841;SDS011;40741;45.002;7.536;2022-11-15T01:03:00;26.48;;;17.13;;
54841;SDS011;40741;45.002;7.536;2022-11-15T01:05:26;25.55;;;16.23;;
54841;SDS011;40741;45.002;7.536;2022-11-15T01:07:55;28.48;;;17.33;;
54841;SDS011;40741;45.002;7.536;2022-11-15T01:10:22;24.13;;;16.35;;
54841;SDS011;40741;45.002;7.536;2022-11-15T01:12:48;23.23;;;15.70;;
54841;SDS011;40741;45.002;7.536;2022-11-15T01:15:14;26.67;;;16.02;;
54841;SDS011;40741;45.002;7.536;2022-11-15T01:17:41;27.23;;;16.00;;
54841;SDS011;40741;45.002;7.536;2022-11-15T01:20:07;24.83;;;15.15;;
54841;SDS011;40741;45.002;7.536;2022-11-15T01:22:33;22.25;;;14.20;;
54841;SDS011;40741;45.002;7.536;2022-11-15T01:24:59;24.70;;;15.88;;
54841;SDS011;40741;45.002;7.536;2022-11-15T01:27:25;20.90;;;14.38;;
54841;SDS011;40741;45.002;7.536;2022-11-15T01:29:51;22.25;;;14.95;;
54841;SDS011;40741;45.002;7.536;2022-11-15T01:32:17;23.25;;;15.13;;
54841;SDS011;40741;45.002;7.536;2022-11-15T01:34:43;24.50;;;15.48;;
54841;SDS011;40741;45.002;7.536;2022-11-15T01:37:09;23.80;;;15.48;;
54841;SDS011;40741;45.002;7.536;2022-11-15T01:39:35;23.95;;;15.30;;
54841;SDS011;40741;45.002;7.536;2022-11-15T01:42:02;28.48;;;16.30;;
54841;SDS011;40741;45.002;7.536;2022-11-15T01:47:05;25.77;;;15.98;;
54841;SDS011;40741;45.002;7.536;2022-11-15T01:49:33;27.63;;;15.55;;
54841;SDS011;40741;45.002;7.536;2022-11-15T01:52:00;25.23;;;15.82;;
54841;SDS011;40741;45.002;7.536;2022-11-15T01:54:27;26.42;;;16.85;;
54841;SDS011;40741;45.002;7.536;2022-11-15T01:56:55;25.23;;;16.27;;
54841;SDS011;40741;45.002;7.536;2022-11-15T01:59:23;27.70;;;17.25;;
54841;SDS011;40741;45.002;7.536;2022-11-15T02:01:49;26.52;;;16.80;;
54841;SDS011;40741;45.002;7.536;2022-11-15T02:04:16;26.40;;;16.80;;
54841;SDS011;40741;45.002;7.536;2022-11-15T02:06:42;27.85;;;16.90;;
54841;SDS011;40741;45.002;7.536;2022-11-15T02:09:19;22.67;;;15.77;;
54841;SDS011;40741;45.002;7.536;2022-11-15T02:11:55;22.48;;;14.70;;
54841;SDS011;40741;45.002;7.536;2022-11-15T02:14:25;23.15;;;15.93;;
54841;SDS011;40741;45.002;7.536;2022-11-15T02:22:14;20.73;;;15.18;;
54841;SDS011;40741;45.002;7.536;2022-11-15T02:33:41;27.95;;;17.17;;
54841;SDS011;40741;45.002;7.536;2022-11-15T02:36:28;28.35;;;17.30;;
54841;SDS011;40741;45.002;7.536;2022-11-15T02:44:23;25.80;;;16.67;;
54841;SDS011;40741;45.002;7.536;2022-11-15T02:47:00;27.38;;;17.52;;
54841;SDS011;40741;45.002;7.536;2022-11-15T02:49:37;27.88;;;18.40;;
54841;SDS011;40741;45.002;7.536;2022-11-15T02:52:05;27.23;;;18.10;;
54841;SDS011;40741;45.002;7.536;2022-11-15T02:54:36;26.58;;;16.85;;
54841;SDS011;40741;45.002;7.536;2022-11-15T02:57:05;26.63;;;17.17;;
54841;SDS011;40741;45.002;7.536;2022-11-15T03:02:18;25.00;;;17.10;;
54841;SDS011;40741;45.002;7.536;2022-11-15T03:18:49;24.48;;;15.90;;
54841;SDS011;40741;45.002;7.536;2022-11-15T03:21:21;28.75;;;17.83;;
54841;SDS011;40741;45.002;7.536;2022-11-15T03:24:07;29.42;;;17.88;;
54841;SDS011;40741;45.002;7.536;2022-11-15T03:26:45;28.70;;;17.70;;
54841;SDS011;40741;45.002;7.536;2022-11-15T03:29:20;26.27;;;17.15;;
54841;SDS011;40741;45.002;7.536;2022-11-15T03:31:54;26.58;;;15.93;;
54841;SDS011;40741;45.002;7.536;2022-11-15T03:34:23;26.33;;;17.27;;
54841;SDS011;40741;45.002;7.536;2022-11-15T03:37:00;26.55;;;16.80;;
54841;SDS011;40741;45.002;7.536;2022-11-15T03:39:29;27.88;;;17.02;;
54841;SDS011;40741;45.002;7.536;2022-11-15T03:48:05;23.98;;;15.00;;
54841;SDS011;40741;45.002;7.536;2022-11-15T03:50:24;20.10;;;14.27;;
54841;SDS011;40741;45.002;7.536;2022-11-15T03:52:54;24.63;;;16.02;;
54841;SDS011;40741;45.002;7.536;2022-11-15T03:55:22;22.15;;;14.63;;
54841;SDS011;40741;45.002;7.536;2022-11-15T03:57:49;21.08;;;14.15;;
54841;SDS011;40741;45.002;7.536;2022-11-15T04:00:16;20.92;;;14.85;;
54841;SDS011;40741;45.002;7.536;2022-11-15T04:02:42;21.17;;;14.90;;
54841;SDS011;40741;45.002;7.536;2022-11-15T04:05:08;20.17;;;14.88;;
54841;SDS011;40741;45.002;7.536;2022-11-15T04:07:34;20.02;;;14.57;;
54841;SDS011;40741;45.002;7.536;2022-11-15T04:10:00;22.50;;;15.63;;
54841;SDS011;40741;45.002;7.536;2022-11-15T04:12:27;22.90;;;14.95;;
54841;SDS011;40741;45.002;7.536;2022-11-15T04:14:59;27.15;;;16.40;;
54841;SDS011;40741;45.002;7.536;2022-11-15T04:17:32;21.17;;;14.88;;
54841;SDS011;40741;45.002;7.536;2022-11-15T04:19:58;23.13;;;16.13;;
54841;SDS011;40741;45.002;7.536;2022-11-15T04:22:43;24.55;;;15.90;;
54841;SDS011;40741;45.002;7.536;2022-11-15T04:25:28;26.85;;;16.48;;
54841;SDS011;40741;45.002;7.536;2022-11-15T04:27:54;26.45;;;16.48;;
54841;SDS011;40741;45.002;7.536;2022-11-15T04:30:20;24.38;;;16.20;;
54841;SDS011;40741;45.002;7.536;2022-11-15T04:32:46;24.88;;;15.95;;
54841;SDS011;40741;45.002;7.536;2022-11-15T04:35:12;26.08;;;17.10;;
54841;SDS011;40741;45.002;7.536;2022-11-15T04:37:38;25.35;;;16.67;;
54841;SDS011;40741;45.002;7.536;2022-11-15T04:40:04;25.80;;;17.38;;
54841;SDS011;40741;45.002;7.536;2022-11-15T04:42:30;25.70;;;16.70;;
54841;SDS011;40741;45.002;7.536;2022-11-15T04:44:56;24.25;;;16.63;;
54841;SDS011;40741;45.002;7.536;2022-11-15T04:47:22;21.38;;;15.80;;
54841;SDS011;40741;45.002;7.536;2022-11-15T04:49:48;24.33;;;15.73;;
54841;SDS011;40741;45.002;7.536;2022-11-15T04:52:14;23.92;;;16.35;;
54841;SDS011;40741;45.002;7.536;2022-11-15T04:54:40;23.15;;;15.45;;
54841;SDS011;40741;45.002;7.536;2022-11-15T04:57:07;25.17;;;16.08;;
54841;SDS011;40741;45.002;7.536;2022-11-15T04:59:33;23.42;;;14.48;;
54841;SDS011;40741;45.002;7.536;2022-11-15T05:01:59;23.98;;;15.02;;
54841;SDS011;40741;45.002;7.536;2022-11-15T05:04:25;22.60;;;15.65;;
54841;SDS011;40741;45.002;7.536;2022-11-15T05:06:51;23.27;;;14.93;;
54841;SDS011;40741;45.002;7.536;2022-11-15T05:09:18;25.27;;;16.33;;
54841;SDS011;40741;45.002;7.536;2022-11-15T05:11:45;21.45;;;15.55;;
54841;SDS011;40741;45.002;7.536;2022-11-15T05:14:11;22.67;;;15.70;;
54841;SDS011;40741;45.002;7.536;2022-11-15T05:16:38;22.90;;;15.65;;
54841;SDS011;40741;45.002;7.536;2022-11-15T05:19:04;19.20;;;13.93;;
54841;SDS011;40741;45.002;7.536;2022-11-15T05:21:31;22.60;;;15.77;;
54841;SDS011;40741;45.002;7.536;2022-11-15T05:23:57;23.90;;;15.50;;
54841;SDS011;40741;45.002;7.536;2022-11-15T05:26:23;24.17;;;16.00;;
54841;SDS011;40741;45.002;7.536;2022-11-15T05:28:56;23.42;;;15.23;;
54841;SDS011;40741;45.002;7.536;2022-11-15T05:31:23;24.65;;;15.73;;
54841;SDS011;40741;45.002;7.536;2022-11-15T05:33:49;19.48;;;14.10;;
54841;SDS011;40741;45.002;7.536;2022-11-15T05:36:18;23.30;;;14.55;;
54841;SDS011;40741;45.002;7.536;2022-11-15T05:38:45;20.98;;;14.93;;
54841;SDS011;40741;45.002;7.536;2022-11-15T05:41:12;20.73;;;14.00;;
54841;SDS011;40741;45.002;7.536;2022-11-15T05:43:39;20.58;;;14.40;;
54841;SDS011;40741;45.002;7.536;2022-11-15T05:46:06;22.88;;;14.82;;
54841;SDS011;40741;45.002;7.536;2022-11-15T05:48:33;23.15;;;14.85;;
54841;SDS011;40741;45.002;7.536;2022-11-15T05:51:00;21.40;;;15.20;;
54841;SDS011;40741;45.002;7.536;2022-11-15T05:53:29;26.05;;;16.58;;
54841;SDS011;40741;45.002;7.536;2022-11-15T05:55:55;28.08;;;16.35;;
54841;SDS011;40741;45.002;7.536;2022-11-15T05:58:21;22.10;;;15.15;;
54841;SDS011;40741;45.002;7.536;2022-11-15T06:00:47;25.03;;;17.03;;
54841;SDS011;40741;45.002;7.536;2022-11-15T06:03:13;28.63;;;19.00;;
54841;SDS011;40741;45.002;7.536;2022-11-15T06:05:39;28.00;;;17.05;;
54841;SDS011;40741;45.002;7.536;2022-11-15T06:08:06;24.77;;;16.80;;
54841;SDS011;40741;45.002;7.536;2022-11-15T06:10:32;25.13;;;17.17;;
54841;SDS011;40741;45.002;7.536;2022-11-15T06:12:59;26.33;;;17.63;;
54841;SDS011;40741;45.002;7.536;2022-11-15T06:15:25;26.98;;;17.15;;
54841;SDS011;40741;45.002;7.536;2022-11-15T06:17:51;26.08;;;17.92;;
54841;SDS011;40741;45.002;7.536;2022-11-15T06:20:17;25.70;;;16.90;;
54841;SDS011;40741;45.002;7.536;2022-11-15T06:22:43;26.77;;;17.75;;
54841;SDS011;40741;45.002;7.536;2022-11-15T06:25:09;26.63;;;17.55;;
54841;SDS011;40741;45.002;7.536;2022-11-15T06:27:35;25.75;;;16.63;;
54841;SDS011;40741;45.002;7.536;2022-11-15T06:30:02;26.30;;;17.10;;
54841;SDS011;40741;45.002;7.536;2022-11-15T06:32:28;25.08;;;16.58;;
54841;SDS011;40741;45.002;7.536;2022-11-15T06:34:55;28.73;;;17.02;;
54841;SDS011;40741;45.002;7.536;2022-11-15T06:37:21;25.17;;;16.80;;
54841;SDS011;40741;45.002;7.536;2022-11-15T06:39:47;26.55;;;17.20;;
54841;SDS011;40741;45.002;7.536;2022-11-15T06:42:13;26.13;;;16.50;;
54841;SDS011;40741;45.002;7.536;2022-11-15T06:44:39;30.35;;;17.38;;
54841;SDS011;40741;45.002;7.536;2022-11-15T06:47:05;27.65;;;16.77;;
54841;SDS011;40741;45.002;7.536;2022-11-15T06:49:31;26.40;;;16.48;;
54841;SDS011;40741;45.002;7.536;2022-11-15T06:51:57;23.35;;;15.43;;
54841;SDS011;40741;45.002;7.536;2022-11-15T06:54:23;26.05;;;15.80;;
54841;SDS011;40741;45.002;7.536;2022-11-15T06:56:50;25.02;;;17.13;;
54841;SDS011;40741;45.002;7.536;2022-11-15T06:59:16;26.52;;;17.60;;
54841;SDS011;40741;45.002;7.536;2022-11-15T07:01:42;24.42;;;16.88;;
54841;SDS011;40741;45.002;7.536;2022-11-15T07:04:08;28.52;;;17.08;;
54841;SDS011;40741;45.002;7.536;2022-11-15T07:06:34;22.70;;;15.40;;
54841;SDS011;40741;45.002;7.536;2022-11-15T07:09:01;30.35;;;17.95;;
54841;SDS011;40741;45.002;7.536;2022-11-15T07:11:27;29.73;;;18.65;;
54841;SDS011;40741;45.002;7.536;2022-11-15T07:13:53;27.77;;;18.38;;
54841;SDS011;40741;45.002;7.536;2022-11-15T07:16:19;28.33;;;19.20;;
54841;SDS011;40741;45.002;7.536;2022-11-15T07:18:45;26.25;;;17.25;;
54841;SDS011;40741;45.002;7.536;2022-11-15T07:21:11;27.20;;;18.33;;
54841;SDS011;40741;45.002;7.536;2022-11-15T07:23:38;28.63;;;19.15;;
54841;SDS011;40741;45.002;7.536;2022-11-15T07:26:04;26.90;;;17.13;;
54841;SDS011;40741;45.002;7.536;2022-11-15T07:28:31;26.95;;;17.27;;
54841;SDS011;40741;45.002;7.536;2022-11-15T07:30:57;26.60;;;17.30;;
54841;SDS011;40741;45.002;7.536;2022-11-15T07:33:23;26.48;;;16.80;;
54841;SDS011;40741;45.002;7.536;2022-11-15T07:35:49;25.40;;;17.42;;
54841;SDS011;40741;45.002;7.536;2022-11-15T07:38:15;27.60;;;18.13;;
54841;SDS011;40741;45.002;7.536;2022-11-15T07:40:44;28.27;;;17.23;;
54841;SDS011;40741;45.002;7.536;2022-11-15T07:43:11;30.90;;;19.08;;
54841;SDS011;40741;45.002;7.536;2022-11-15T07:45:44;29.85;;;17.80;;
54841;SDS011;40741;45.002;7.536;2022-11-15T07:48:10;24.88;;;17.08;;
54841;SDS011;40741;45.002;7.536;2022-11-15T07:50:36;26.65;;;16.65;;
54841;SDS011;40741;45.002;7.536;2022-11-15T07:53:02;29.13;;;17.67;;
54841;SDS011;40741;45.002;7.536;2022-11-15T07:55:29;27.08;;;17.45;;
54841;SDS011;40741;45.002;7.536;2022-11-15T07:58:05;30.42;;;17.08;;
54841;SDS011;40741;45.002;7.536;2022-11-15T08:00:31;30.85;;;17.33;;
54841;SDS011;40741;45.002;7.536;2022-11-15T08:03:05;29.58;;;17.50;;
54841;SDS011;40741;45.002;7.536;2022-11-15T08:05:31;27.55;;;17.13;;
54841;SDS011;40741;45.002;7.536;2022-11-15T08:07:57;26.83;;;18.23;;
54841;SDS011;40741;45.002;7.536;2022-11-15T08:10:24;31.63;;;18.05;;
54841;SDS011;40741;45.002;7.536;2022-11-15T08:13:23;33.30;;;19.45;;
54841;SDS011;40741;45.002;7.536;2022-11-15T08:15:42;31.77;;;19.40;;
54841;SDS011;40741;45.002;7.536;2022-11-15T08:18:10;31.02;;;21.05;;
54841;SDS011;40741;45.002;7.536;2022-11-15T08:20:36;36.80;;;20.55;;
54841;SDS011;40741;45.002;7.536;2022-11-15T08:23:03;31.60;;;19.65;;
54841;SDS011;40741;45.002;7.536;2022-11-15T08:25:30;30.65;;;18.27;;
54841;SDS011;40741;45.002;7.536;2022-11-15T08:27:57;31.42;;;19.92;;
54841;SDS011;40741;45.002;7.536;2022-11-15T08:30:24;31.02;;;18.77;;
54841;SDS011;40741;45.002;7.536;2022-11-15T08:32:50;10.68;;;7.43;;
54841;SDS011;40741;45.002;7.536;2022-11-15T08:35:17;35.78;;;20.50;;
54841;SDS011;40741;45.002;7.536;2022-11-15T08:37:44;33.92;;;19.40;;
54841;SDS011;40741;45.002;7.536;2022-11-15T08:40:10;35.53;;;19.67;;
54841;SDS011;40741;45.002;7.536;2022-11-15T08:42:38;33.28;;;20.30;;
54841;SDS011;40741;45.002;7.536;2022-11-15T08:45:04;33.05;;;20.38;;
54841;SDS011;40741;45.002;7.536;2022-11-15T08:47:30;42.03;;;24.60;;
54841;SDS011;40741;45.002;7.536;2022-11-15T08:49:56;48.72;;;25.48;;
54841;SDS011;40741;45.002;7.536;2022-11-15T08:52:22;49.22;;;26.13;;
54841;SDS011;40741;45.002;7.536;2022-11-15T08:54:48;48.35;;;26.38;;
54841;SDS011;40741;45.002;7.536;2022-11-15T08:57:14;54.78;;;28.98;;
54841;SDS011;40741;45.002;7.536;2022-11-15T08:59:41;55.85;;;27.50;;
54841;SDS011;40741;45.002;7.536;2022-11-15T09:02:10;58.75;;;28.98;;
54841;SDS011;40741;45.002;7.536;2022-11-15T09:04:37;49.05;;;26.02;;
54841;SDS011;40741;45.002;7.536;2022-11-15T09:07:03;58.83;;;29.13;;
54841;SDS011;40741;45.002;7.536;2022-11-15T09:09:29;50.10;;;26.80;;
54841;SDS011;40741;45.002;7.536;2022-11-15T09:11:55;50.65;;;26.02;;
54841;SDS011;40741;45.002;7.536;2022-11-15T09:14:21;54.40;;;25.92;;
54841;SDS011;40741;45.002;7.536;2022-11-15T09:16:47;50.75;;;26.27;;
54841;SDS011;40741;45.002;7.536;2022-11-15T09:19:13;57.30;;;29.48;;
54841;SDS011;40741;45.002;7.536;2022-11-15T09:21:39;58.22;;;29.98;;
54841;SDS011;40741;45.002;7.536;2022-11-15T09:24:05;45.95;;;24.05;;
54841;SDS011;40741;45.002;7.536;2022-11-15T09:26:31;63.58;;;30.17;;
54841;SDS011;40741;45.002;7.536;2022-11-15T09:28:57;58.53;;;28.20;;
54841;SDS011;40741;45.002;7.536;2022-11-15T09:31:24;49.67;;;26.95;;
54841;SDS011;40741;45.002;7.536;2022-11-15T09:33:50;60.17;;;28.35;;
54841;SDS011;40741;45.002;7.536;2022-11-15T09:36:16;34.08;;;18.45;;
54841;SDS011;40741;45.002;7.536;2022-11-15T09:38:42;54.92;;;27.88;;
54841;SDS011;40741;45.002;7.536;2022-11-15T09:51:25;53.38;;;27.08;;
54841;SDS011;40741;45.002;7.536;2022-11-15T09:56:21;51.42;;;27.58;;
54841;SDS011;40741;45.002;7.536;2022-11-15T10:01:19;55.30;;;28.35;;
54841;SDS011;40741;45.002;7.536;2022-11-15T10:03:48;59.67;;;30.60;;
54841;SDS011;40741;45.002;7.536;2022-11-15T10:06:24;63.22;;;31.20;;
54841;SDS011;40741;45.002;7.536;2022-11-15T10:11:25;60.95;;;30.35;;
54841;SDS011;40741;45.002;7.536;2022-11-15T10:13:52;68.13;;;29.52;;
54841;SDS011;40741;45.002;7.536;2022-11-15T10:16:47;55.97;;;29.05;;
54841;SDS011;40741;45.002;7.536;2022-11-15T10:24:34;59.05;;;29.58;;
54841;SDS011;40741;45.002;7.536;2022-11-15T10:27:00;57.97;;;29.05;;
54841;SDS011;40741;45.002;7.536;2022-11-15T10:29:26;56.70;;;27.13;;
54841;SDS011;40741;45.002;7.536;2022-11-15T10:31:52;51.80;;;26.38;;
54841;SDS011;40741;45.002;7.536;2022-11-15T10:34:22;56.83;;;28.27;;
54841;SDS011;40741;45.002;7.536;2022-11-15T10:36:55;52.67;;;27.35;;
54841;SDS011;40741;45.002;7.536;2022-11-15T10:39:22;54.58;;;28.00;;
54841;SDS011;40741;45.002;7.536;2022-11-15T10:41:48;48.90;;;25.80;;
54841;SDS011;40741;45.002;7.536;2022-11-15T10:46:44;50.75;;;25.23;;
54841;SDS011;40741;45.002;7.536;2022-11-15T10:54:11;52.13;;;27.67;;
54841;SDS011;40741;45.002;7.536;2022-11-15T10:56:38;51.00;;;24.95;;
54841;SDS011;40741;45.002;7.536;2022-11-15T10:59:05;52.88;;;26.40;;
54841;SDS011;40741;45.002;7.536;2022-11-15T11:01:31;54.35;;;27.17;;
54841;SDS011;40741;45.002;7.536;2022-11-15T11:04:10;54.38;;;25.40;;
54841;SDS011;40741;45.002;7.536;2022-11-15T11:06:46;50.08;;;25.10;;
54841;SDS011;40741;45.002;7.536;2022-11-15T11:09:33;52.25;;;25.45;;
54841;SDS011;40741;45.002;7.536;2022-11-15T11:12:00;54.13;;;25.15;;
54841;SDS011;40741;45.002;7.536;2022-11-15T11:14:31;51.53;;;24.38;;
54841;SDS011;40741;45.002;7.536;2022-11-15T11:22:14;51.10;;;25.17;;
54841;SDS011;40741;45.002;7.536;2022-11-15T11:32:29;48.40;;;24.20;;
54841;SDS011;40741;45.002;7.536;2022-11-15T11:37:49;50.97;;;24.85;;
54841;SDS011;40741;45.002;7.536;2022-11-15T11:40:23;52.70;;;25.42;;
54841;SDS011;40741;45.002;7.536;2022-11-15T11:45:24;49.13;;;24.55;;
54841;SDS011;40741;45.002;7.536;2022-11-15T11:47:55;56.28;;;27.20;;
54841;SDS011;40741;45.002;7.536;2022-11-15T11:50:27;52.75;;;26.90;;
54841;SDS011;40741;45.002;7.536;2022-11-15T11:53:14;54.08;;;24.92;;
54841;SDS011;40741;45.002;7.536;2022-11-15T11:55:42;50.63;;;25.35;;
54841;SDS011;40741;45.002;7.536;2022-11-15T12:00:40;50.38;;;25.80;;
54841;SDS011;40741;45.002;7.536;2022-11-15T12:03:09;52.30;;;25.63;;
54841;SDS011;40741;45.002;7.536;2022-11-15T12:05:39;52.80;;;25.70;;
54841;SDS011;40741;45.002;7.536;2022-11-15T12:08:15;54.15;;;25.95;;
54841;SDS011;40741;45.002;7.536;2022-11-15T12:10:43;51.03;;;26.00;;
54841;SDS011;40741;45.002;7.536;2022-11-15T12:13:21;52.55;;;26.63;;
54841;SDS011;40741;45.002;7.536;2022-11-15T12:18:21;52.88;;;26.05;;
54841;SDS011;40741;45.002;7.536;2022-11-15T12:20:52;55.58;;;26.33;;
54841;SDS011;40741;45.002;7.536;2022-11-15T12:23:23;51.13;;;25.70;;
54841;SDS011;40741;45.002;7.536;2022-11-15T12:28:22;47.10;;;24.88;;
54841;SDS011;40741;45.002;7.536;2022-11-15T12:30:52;49.08;;;24.92;;
54841;SDS011;40741;45.002;7.536;2022-11-15T12:33:30;51.35;;;24.42;;
54841;SDS011;40741;45.002;7.536;2022-11-15T12:36:01;45.78;;;23.25;;
54841;SDS011;40741;45.002;7.536;2022-11-15T12:41:16;50.63;;;24.02;;
54841;SDS011;40741;45.002;7.536;2022-11-15T12:43:43;49.42;;;23.38;;
54841;SDS011;40741;45.002;7.536;2022-11-15T12:46:14;46.20;;;23.25;;
54841;SDS011;40741;45.002;7.536;2022-11-15T12:48:47;44.15;;;23.52;;
54841;SDS011;40741;45.002;7.536;2022-11-15T12:51:13;42.78;;;23.08;;
54841;SDS011;40741;45.002;7.536;2022-11-15T12:53:39;47.85;;;23.88;;
54841;SDS011;40741;45.002;7.536;2022-11-15T12:58:48;38.45;;;19.58;;
54841;SDS011;40741;45.002;7.536;2022-11-15T13:06:41;45.33;;;22.92;;
54841;SDS011;40741;45.002;7.536;2022-11-15T13:09:53;41.88;;;22.27;;
54841;SDS011;40741;45.002;7.536;2022-11-15T13:11:54;43.50;;;22.63;;
54841;SDS011;40741;45.002;7.536;2022-11-15T13:22:26;32.28;;;17.50;;
54841;SDS011;40741;45.002;7.536;2022-11-15T13:25:14;29.42;;;15.20;;
54841;SDS011;40741;45.002;7.536;2022-11-15T13:27:44;31.67;;;16.85;;
54841;SDS011;40741;45.002;7.536;2022-11-15T13:30:24;31.90;;;18.10;;
54841;SDS011;40741;45.002;7.536;2022-11-15T13:32:50;25.33;;;14.50;;
54841;SDS011;40741;45.002;7.536;2022-11-15T13:35:21;35.25;;;18.02;;
54841;SDS011;40741;45.002;7.536;2022-11-15T13:37:48;29.95;;;17.40;;
54841;SDS011;40741;45.002;7.536;2022-11-15T13:42:43;32.35;;;18.05;;
54841;SDS011;40741;45.002;7.536;2022-11-15T13:45:11;23.70;;;14.15;;
54841;SDS011;40741;45.002;7.536;2022-11-15T13:47:38;34.15;;;18.13;;
54841;SDS011;40741;45.002;7.536;2022-11-15T13:50:04;35.13;;;19.40;;
54841;SDS011;40741;45.002;7.536;2022-11-15T13:52:31;27.02;;;14.55;;
54841;SDS011;40741;45.002;7.536;2022-11-15T13:55:00;34.25;;;18.13;;
54841;SDS011;40741;45.002;7.536;2022-11-15T13:57:40;36.80;;;19.58;;
54841;SDS011;40741;45.002;7.536;2022-11-15T14:02:53;36.15;;;20.23;;
54841;SDS011;40741;45.002;7.536;2022-11-15T14:05:20;19.42;;;11.88;;
54841;SDS011;40741;45.002;7.536;2022-11-15T14:07:58;24.75;;;13.98;;
54841;SDS011;40741;45.002;7.536;2022-11-15T14:10:34;35.33;;;18.15;;
54841;SDS011;40741;45.002;7.536;2022-11-15T14:13:01;38.47;;;22.10;;
54841;SDS011;40741;45.002;7.536;2022-11-15T14:15:31;29.67;;;17.83;;
54841;SDS011;40741;45.002;7.536;2022-11-15T14:17:58;32.55;;;16.92;;
54841;SDS011;40741;45.002;7.536;2022-11-15T14:22:51;38.28;;;20.90;;
54841;SDS011;40741;45.002;7.536;2022-11-15T14:25:21;41.50;;;21.73;;
54841;SDS011;40741;45.002;7.536;2022-11-15T14:30:33;41.95;;;22.35;;
54841;SDS011;40741;45.002;7.536;2022-11-15T14:32:59;40.80;;;22.08;;
54841;SDS011;40741;45.002;7.536;2022-11-15T14:35:25;41.53;;;22.65;;
54841;SDS011;40741;45.002;7.536;2022-11-15T14:37:51;44.83;;;23.00;;
54841;SDS011;40741;45.002;7.536;2022-11-15T14:40:20;41.70;;;23.52;;
54841;SDS011;40741;45.002;7.536;2022-11-15T14:42:47;41.97;;;21.95;;
54841;SDS011;40741;45.002;7.536;2022-11-15T14:45:18;45.10;;;25.20;;
54841;SDS011;40741;45.002;7.536;2022-11-15T14:47:45;41.50;;;23.40;;
54841;SDS011;40741;45.002;7.536;2022-11-15T14:50:18;40.83;;;23.35;;
54841;SDS011;40741;45.002;7.536;2022-11-15T14:52:44;48.72;;;26.67;;
54841;SDS011;40741;45.002;7.536;2022-11-15T14:55:21;43.30;;;22.83;;
54841;SDS011;40741;45.002;7.536;2022-11-15T14:57:48;43.53;;;23.15;;
54841;SDS011;40741;45.002;7.536;2022-11-15T15:00:15;43.88;;;24.33;;
54841;SDS011;40741;45.002;7.536;2022-11-15T15:02:42;43.17;;;23.17;;
54841;SDS011;40741;45.002;7.536;2022-11-15T15:05:15;50.35;;;24.90;;
54841;SDS011;40741;45.002;7.536;2022-11-15T15:07:42;39.30;;;22.70;;
54841;SDS011;40741;45.002;7.536;2022-11-15T15:10:08;43.35;;;23.50;;
54841;SDS011;40741;45.002;7.536;2022-11-15T15:12:35;44.25;;;23.77;;
54841;SDS011;40741;45.002;7.536;2022-11-15T15:15:01;45.88;;;23.17;;
54841;SDS011;40741;45.002;7.536;2022-11-15T15:17:27;36.60;;;20.05;;
54841;SDS011;40741;45.002;7.536;2022-11-15T15:19:53;42.30;;;22.92;;
54841;SDS011;40741;45.002;7.536;2022-11-15T15:22:19;44.03;;;23.92;;
54841;SDS011;40741;45.002;7.536;2022-11-15T15:24:50;45.90;;;23.80;;
54841;SDS011;40741;45.002;7.536;2022-11-15T15:27:16;44.28;;;23.45;;
54841;SDS011;40741;45.002;7.536;2022-11-15T15:29:43;44.88;;;23.02;;
54841;SDS011;40741;45.002;7.536;2022-11-15T15:32:09;41.30;;;23.65;;
54841;SDS011;40741;45.002;7.536;2022-11-15T15:34:36;40.85;;;21.15;;
54841;SDS011;40741;45.002;7.536;2022-11-15T15:39:34;37.10;;;20.00;;
54841;SDS011;40741;45.002;7.536;2022-11-15T15:42:00;43.13;;;21.70;;
54841;SDS011;40741;45.002;7.536;2022-11-15T15:44:26;45.33;;;22.13;;
54841;SDS011;40741;45.002;7.536;2022-11-15T15:46:52;45.65;;;22.98;;
54841;SDS011;40741;45.002;7.536;2022-11-15T15:49:18;43.60;;;22.95;;
54841;SDS011;40741;45.002;7.536;2022-11-15T15:51:44;47.10;;;22.77;;
54841;SDS011;40741;45.002;7.536;2022-11-15T15:54:10;45.63;;;22.65;;
54841;SDS011;40741;45.002;7.536;2022-11-15T15:56:36;48.38;;;23.42;;
54841;SDS011;40741;45.002;7.536;2022-11-15T15:59:02;48.30;;;23.65;;
54841;SDS011;40741;45.002;7.536;2022-11-15T16:01:28;47.33;;;23.20;;
54841;SDS011;40741;45.002;7.536;2022-11-15T16:03:54;46.15;;;22.83;;
54841;SDS011;40741;45.002;7.536;2022-11-15T16:06:37;44.20;;;22.95;;
54841;SDS011;40741;45.002;7.536;2022-11-15T16:09:04;41.15;;;22.80;;
54841;SDS011;40741;45.002;7.536;2022-11-15T16:11:30;45.70;;;23.50;;
54841;SDS011;40741;45.002;7.536;2022-11-15T16:13:56;44.60;;;22.20;;
54841;SDS011;40741;45.002;7.536;2022-11-15T16:16:22;42.72;;;22.20;;
54841;SDS011;40741;45.002;7.536;2022-11-15T16:18:48;43.63;;;22.13;;
54841;SDS011;40741;45.002;7.536;2022-11-15T16:21:14;41.83;;;22.38;;
54841;SDS011;40741;45.002;7.536;2022-11-15T16:23:40;43.53;;;22.48;;
54841;SDS011;40741;45.002;7.536;2022-11-15T16:26:23;41.15;;;21.17;;
54841;SDS011;40741;45.002;7.536;2022-11-15T16:28:50;43.42;;;21.98;;
54841;SDS011;40741;45.002;7.536;2022-11-15T16:31:16;43.80;;;22.63;;
54841;SDS011;40741;45.002;7.536;2022-11-15T16:33:45;41.47;;;21.77;;
54841;SDS011;40741;45.002;7.536;2022-11-15T16:36:21;48.05;;;23.23;;
54841;SDS011;40741;45.002;7.536;2022-11-15T16:38:47;53.30;;;27.65;;
54841;SDS011;40741;45.002;7.536;2022-11-15T16:41:14;51.67;;;25.80;;